Time;durP1;ratioP1;P1;durP2;ratioP2;P2;SDS_P1;SDS_P2;PMS_P1;PMS_P2;Temp;Humidity;BMP_temperature;BMP_pressure;BME280_temperature;BME280_humidity;BME280_pressure;Samples;Min_cycle;Max_cycle;Signal;HPM_P1;HPM_P2
2022/09/11 00:01:12;;;;;;;10.60;7.95;;;14.20;99.90;;;;;;4993098;28;20057;-75
2022/09/11 00:03:37;;;;;;;8.70;7.80;;;14.10;99.90;;;;;;5023075;22;20061;-75
2022/09/11 00:06:05;;;;;;;12.95;9.07;;;14.20;99.90;;;;;;5007040;28;20483;-74
2022/09/11 00:08:31;;;;;;;9.30;8.05;;;14.20;99.90;;;;;;5007912;28;20040;-73
2022/09/11 00:11:15;;;;;;;12.07;8.35;;;14.20;99.90;;;;;;5012388;28;20064;-74
2022/09/11 00:13:41;;;;;;;11.10;8.95;;;14.20;99.90;;;;;;5021768;28;20030;-75
2022/09/11 00:16:17;;;;;;;11.75;8.30;;;14.20;99.90;;;;;;5031981;28;20029;-74
2022/09/11 00:18:43;;;;;;;11.07;9.45;;;14.20;99.90;;;;;;5019265;28;20463;-73
2022/09/11 00:21:08;;;;;;;12.73;9.60;;;14.10;99.90;;;;;;5018223;28;20056;-74
2022/09/11 00:23:34;;;;;;;15.27;9.27;;;14.20;99.90;;;;;;5028574;28;20025;-74
2022/09/11 00:26:01;;;;;;;15.07;9.82;;;14.20;99.90;;;;;;5031941;28;20036;-74
2022/09/11 00:28:28;;;;;;;10.95;8.80;;;14.20;99.90;;;;;;5024147;28;20036;-73
2022/09/11 00:30:58;;;;;;;11.82;9.73;;;14.20;99.90;;;;;;5025159;28;20029;-73
2022/09/11 00:33:23;;;;;;;14.13;10.52;;;14.20;99.90;;;;;;5023575;28;20395;-72
2022/09/11 00:35:57;;;;;;;15.05;9.20;;;14.20;99.90;;;;;;5025267;28;20026;-73
2022/09/11 00:38:28;;;;;;;12.63;9.68;;;14.20;99.90;;;;;;5021250;28;20025;-74
2022/09/11 00:40:56;;;;;;;14.90;9.50;;;14.20;99.90;;;;;;5030374;28;20018;-74
2022/09/11 00:43:22;;;;;;;11.15;9.68;;;14.30;99.90;;;;;;5031617;28;20021;-73
2022/09/11 00:45:53;;;;;;;16.48;11.05;;;14.20;99.90;;;;;;5016845;28;20029;-74
2022/09/11 00:48:23;;;;;;;15.10;11.50;;;14.30;99.90;;;;;;5031401;28;20360;-74
2022/09/11 00:50:51;;;;;;;15.18;12.30;;;14.40;99.90;;;;;;5031624;28;20026;-72
2022/09/11 00:53:20;;;;;;;14.40;11.10;;;14.40;99.90;;;;;;5024484;28;20025;-73
2022/09/11 00:55:52;;;;;;;16.58;10.38;;;14.40;99.90;;;;;;5031452;28;20021;-73
2022/09/11 00:58:22;;;;;;;11.60;10.40;;;14.40;99.90;;;;;;5030138;28;20418;-74
2022/09/11 01:00:51;;;;;;;16.90;11.93;;;14.50;99.90;;;;;;5030518;28;20162;-74
2022/09/11 01:03:16;;;;;;;14.00;11.98;;;14.40;99.90;;;;;;5018432;28;20041;-76
2022/09/11 01:05:43;;;;;;;14.85;10.40;;;14.40;99.90;;;;;;5022322;28;20033;-76
2022/09/11 01:08:09;;;;;;;10.23;8.57;;;14.40;99.90;;;;;;5024976;28;20193;-75
2022/09/11 01:10:45;;;;;;;13.60;11.00;;;14.60;99.90;;;;;;5019722;28;20132;-75
2022/09/11 01:13:16;;;;;;;13.70;11.15;;;14.50;99.90;;;;;;5018211;28;20438;-75
2022/09/11 01:16:02;;;;;;;11.73;9.18;;;14.40;99.90;;;;;;5036874;28;20037;-75
2022/09/11 01:18:48;;;;;;;10.98;9.88;;;14.50;99.90;;;;;;5023401;28;20025;-75
2022/09/11 01:21:31;;;;;;;14.80;11.85;;;14.50;99.90;;;;;;5025814;28;20021;-73
2022/09/11 01:24:15;;;;;;;13.65;12.05;;;14.40;99.90;;;;;;5024657;28;20025;-72
2022/09/11 01:27:00;;;;;;;14.50;11.05;;;14.40;99.90;;;;;;5023706;28;20030;-75
2022/09/11 01:29:54;;;;;;;12.80;10.55;;;14.20;99.90;;;;;;5027187;28;20026;-75
2022/09/11 01:32:26;;;;;;;17.48;12.82;;;14.30;99.90;;;;;;5018248;28;20030;-75
2022/09/11 01:34:55;;;;;;;14.23;11.25;;;14.30;99.90;;;;;;5018711;28;20033;-74
2022/09/11 01:37:39;;;;;;;15.80;11.05;;;14.30;99.90;;;;;;5030983;28;20099;-75
2022/09/11 01:40:17;;;;;;;15.77;12.27;;;14.20;99.90;;;;;;5031353;28;20562;-73
2022/09/11 01:42:46;;;;;;;12.25;9.88;;;14.20;99.90;;;;;;5027856;28;20756;-75
2022/09/11 01:45:15;;;;;;;12.93;11.63;;;14.20;99.90;;;;;;5026346;28;20021;-74
2022/09/11 01:47:44;;;;;;;13.80;10.63;;;14.20;99.90;;;;;;5029500;28;20495;-75
2022/09/11 01:50:13;;;;;;;11.98;10.73;;;14.10;99.90;;;;;;5031259;28;20108;-75
2022/09/11 01:52:52;;;;;;;12.07;9.63;;;14.20;99.90;;;;;;5029935;28;20065;-73
2022/09/11 01:55:23;;;;;;;12.68;10.60;;;14.10;99.90;;;;;;5031156;28;20021;-73
2022/09/11 01:57:57;;;;;;;9.90;8.88;;;14.10;99.90;;;;;;5027589;28;20148;-73
2022/09/11 02:00:23;;;;;;;8.40;7.50;;;14.10;99.90;;;;;;5031592;28;20024;-74
2022/09/11 02:02:55;;;;;;;8.73;7.82;;;14.10;99.90;;;;;;5024227;28;20407;-74
2022/09/11 02:05:28;;;;;;;8.30;7.50;;;14.10;99.90;;;;;;5019265;28;20031;-73
2022/09/11 02:08:01;;;;;;;7.45;6.75;;;14.10;99.90;;;;;;5020757;28;20115;-73
2022/09/11 02:10:42;;;;;;;8.50;7.05;;;14.10;99.90;;;;;;5021091;28;20030;-74
2022/09/11 02:13:16;;;;;;;11.77;7.75;;;14.10;99.90;;;;;;5033161;28;20025;-73
2022/09/11 02:15:46;;;;;;;8.85;8.10;;;14.20;99.90;;;;;;5024567;28;20037;-74
2022/09/11 02:18:33;;;;;;;9.38;8.02;;;14.20;99.90;;;;;;5028182;28;20025;-73
2022/09/11 02:20:59;;;;;;;10.05;8.95;;;14.20;99.90;;;;;;5013957;28;20049;-74
2022/09/11 02:23:24;;;;;;;9.27;8.30;;;14.10;99.90;;;;;;5027741;28;20439;-73
2022/09/11 02:25:50;;;;;;;10.52;9.00;;;14.10;99.90;;;;;;5029698;28;20360;-73
2022/09/11 02:28:16;;;;;;;10.60;9.15;;;14.10;99.90;;;;;;5021154;28;20075;-73
2022/09/11 02:30:42;;;;;;;8.40;7.55;;;14.10;99.90;;;;;;5017675;28;20506;-73
2022/09/11 02:33:28;;;;;;;8.38;6.47;;;14.10;99.90;;;;;;5051937;22;20033;-73
2022/09/11 02:36:04;;;;;;;8.65;6.97;;;14.20;99.90;;;;;;5026101;28;20113;-73
2022/09/11 02:38:34;;;;;;;;;;;14.10;99.90;;;;;;5034402;28;20030;-73
2022/09/11 02:41:27;;;;;;;7.80;6.72;;;14.00;99.90;;;;;;5045528;28;19905;-73
2022/09/11 02:44:00;;;;;;;7.35;6.65;;;14.00;99.90;;;;;;5139543;23;20048;-73
2022/09/11 02:46:40;;;;;;;8.90;7.45;;;14.00;99.90;;;;;;5053969;28;20028;-72
2022/09/11 02:49:19;;;;;;;7.30;6.60;;;14.10;99.90;;;;;;5052820;28;20387;-73
2022/09/11 02:52:10;;;;;;;11.15;8.20;;;14.10;99.90;;;;;;5052680;28;20021;-73
2022/09/11 02:54:48;;;;;;;8.05;7.25;;;14.00;99.90;;;;;;5112286;22;20053;-73
2022/09/11 02:57:44;;;;;;;7.00;6.30;;;14.10;99.90;;;;;;5033821;28;20492;-74
2022/09/11 03:00:10;;;;;;;9.18;8.15;;;14.10;99.90;;;;;;5020653;28;20025;-73
2022/09/11 03:02:40;;;;;;;7.40;6.70;;;14.10;99.90;;;;;;5025087;28;20051;-73
2022/09/11 03:05:07;;;;;;;7.90;7.10;;;14.20;99.90;;;;;;5027350;28;20455;-73
2022/09/11 03:07:33;;;;;;;6.72;6.13;;;14.30;99.90;;;;;;5013824;28;20488;-73
2022/09/11 03:09:58;;;;;;;9.73;7.45;;;14.30;99.90;;;;;;5026995;28;20390;-73
2022/09/11 03:12:25;;;;;;;11.73;7.97;;;14.40;99.90;;;;;;5022521;28;20025;-73
2022/09/11 03:14:51;;;;;;;9.85;7.47;;;14.30;99.90;;;;;;5019744;28;20025;-73
2022/09/11 03:17:17;;;;;;;6.63;6.00;;;14.40;99.90;;;;;;5023669;28;20117;-74
2022/09/11 03:19:42;;;;;;;8.60;6.97;;;14.20;99.90;;;;;;5020905;28;20029;-73
2022/09/11 03:22:08;;;;;;;10.13;8.05;;;14.30;99.90;;;;;;5027825;28;20025;-73
2022/09/11 03:24:33;;;;;;;8.10;7.30;;;14.30;99.90;;;;;;5032883;28;20479;-72
2022/09/11 03:26:59;;;;;;;10.25;8.90;;;14.20;99.90;;;;;;5028445;28;20079;-73
2022/09/11 03:29:24;;;;;;;12.25;9.35;;;14.20;99.90;;;;;;5032722;28;20079;-73
2022/09/11 03:31:50;;;;;;;10.65;9.55;;;14.10;99.90;;;;;;5032632;28;20096;-75
2022/09/11 03:34:16;;;;;;;13.23;9.80;;;14.20;99.90;;;;;;5018196;28;20065;-73
2022/09/11 03:36:42;;;;;;;9.27;8.45;;;14.50;99.90;;;;;;5023193;28;20109;-73
2022/09/11 03:39:08;;;;;;;9.90;8.20;;;14.30;99.90;;;;;;5030808;28;20021;-73
2022/09/11 03:41:34;;;;;;;15.10;11.15;;;14.40;99.90;;;;;;5043683;28;20025;-74
2022/09/11 03:44:00;;;;;;;9.07;8.15;;;14.40;99.90;;;;;;5030301;28;20026;-74
2022/09/11 03:46:26;;;;;;;10.65;9.55;;;14.40;99.90;;;;;;5021557;28;20418;-74
2022/09/11 03:48:52;;;;;;;9.80;7.90;;;14.50;99.90;;;;;;5032559;28;20447;-74
2022/09/11 03:51:18;;;;;;;10.80;9.70;;;14.50;99.90;;;;;;5032597;28;20096;-73
2022/09/11 03:53:43;;;;;;;9.52;8.13;;;14.50;99.90;;;;;;5029737;28;20036;-71
2022/09/11 03:56:13;;;;;;;9.98;8.50;;;14.50;99.90;;;;;;5024444;28;20117;-71
2022/09/11 03:58:39;;;;;;;10.32;9.20;;;14.60;99.90;;;;;;5014696;28;20490;-72
2022/09/11 04:01:13;;;;;;;13.07;11.50;;;14.50;99.90;;;;;;5022266;28;20075;-73
2022/09/11 04:03:40;;;;;;;15.70;11.82;;;14.60;99.90;;;;;;5019029;28;20076;-72
2022/09/11 04:06:06;;;;;;;11.55;10.05;;;14.60;99.90;;;;;;5027084;28;20056;-71
2022/09/11 04:08:32;;;;;;;13.10;11.75;;;14.60;99.90;;;;;;5027793;28;20038;-72
2022/09/11 04:11:05;;;;;;;11.57;10.38;;;14.60;99.90;;;;;;5031237;28;20182;-72
2022/09/11 04:13:33;;;;;;;11.25;10.25;;;14.40;99.90;;;;;;5030892;28;20056;-73
2022/09/11 04:16:01;;;;;;;12.73;11.05;;;14.50;99.90;;;;;;5031900;28;20120;-73
2022/09/11 04:18:29;;;;;;;12.95;11.57;;;14.50;99.90;;;;;;5018419;28;20024;-73
2022/09/11 04:20:54;;;;;;;16.20;11.75;;;14.40;99.90;;;;;;5031604;28;20368;-75
2022/09/11 04:23:20;;;;;;;13.80;12.00;;;14.30;99.90;;;;;;5012955;28;20084;-75
2022/09/11 04:25:46;;;;;;;14.93;13.00;;;14.40;99.90;;;;;;5024738;28;20036;-74
2022/09/11 04:28:12;;;;;;;12.43;11.13;;;14.40;99.90;;;;;;5026076;28;20021;-73
2022/09/11 04:30:37;;;;;;;14.27;11.38;;;14.50;99.90;;;;;;5024509;28;20025;-71
2022/09/11 04:33:04;;;;;;;12.43;11.13;;;14.50;99.90;;;;;;5018535;28;20437;-74
2022/09/11 04:35:39;;;;;;;14.35;11.45;;;14.50;99.90;;;;;;5019779;28;20553;-75
2022/09/11 04:38:06;;;;;;;11.98;10.80;;;14.50;99.90;;;;;;5018978;28;20025;-73
2022/09/11 04:40:33;;;;;;;14.93;12.80;;;14.50;99.90;;;;;;5031575;28;20079;-73
2022/09/11 04:42:59;;;;;;;12.32;11.07;;;14.50;99.90;;;;;;5024508;28;20113;-73
2022/09/11 04:45:25;;;;;;;15.68;12.40;;;14.60;99.90;;;;;;5025105;28;20112;-72
2022/09/11 04:47:51;;;;;;;14.88;13.38;;;14.40;99.90;;;;;;5019382;28;20509;-74
2022/09/11 04:50:17;;;;;;;16.13;12.63;;;14.40;99.90;;;;;;5018575;28;20431;-74
2022/09/11 04:52:46;;;;;;;15.07;13.48;;;14.40;99.90;;;;;;5031018;28;20044;-74
2022/09/11 04:55:11;;;;;;;16.48;13.45;;;14.50;99.90;;;;;;5016046;28;20038;-75
2022/09/11 04:57:37;;;;;;;14.20;12.32;;;14.40;99.90;;;;;;5031332;28;20035;-74
2022/09/11 05:00:05;;;;;;;16.77;14.10;;;14.50;99.90;;;;;;5029844;28;20112;-74
2022/09/11 05:02:31;;;;;;;18.60;15.05;;;14.40;99.90;;;;;;5024153;28;20105;-74
2022/09/11 05:04:57;;;;;;;19.60;15.63;;;14.40;99.90;;;;;;5027764;28;20100;-73
2022/09/11 05:07:24;;;;;;;16.38;13.80;;;14.30;99.90;;;;;;5021524;28;20025;-73
2022/09/11 05:09:53;;;;;;;22.58;16.27;;;14.30;99.90;;;;;;5029455;28;20022;-73
2022/09/11 05:12:19;;;;;;;18.02;15.45;;;14.30;99.90;;;;;;5020595;28;20029;-73
2022/09/11 05:14:45;;;;;;;16.60;14.73;;;14.40;99.90;;;;;;5014282;28;20034;-74
2022/09/11 05:17:12;;;;;;;17.60;15.07;;;14.30;99.90;;;;;;5020903;28;20467;-73
2022/09/11 05:19:38;;;;;;;15.68;13.77;;;14.30;99.90;;;;;;5015542;28;20053;-73
2022/09/11 05:22:05;;;;;;;14.02;12.45;;;14.40;99.90;;;;;;5010536;28;20053;-73
2022/09/11 05:24:30;;;;;;;15.95;14.25;;;14.50;99.90;;;;;;5027378;28;20030;-73
2022/09/11 05:26:57;;;;;;;17.60;14.18;;;14.60;99.90;;;;;;5020737;28;20033;-73
2022/09/11 05:29:27;;;;;;;16.83;14.05;;;14.50;99.90;;;;;;5023740;28;20021;-73
2022/09/11 05:31:54;;;;;;;18.42;15.18;;;14.50;99.90;;;;;;5029848;28;20604;-73
2022/09/11 05:34:21;;;;;;;21.73;14.85;;;14.50;99.90;;;;;;5034602;28;20030;-73
2022/09/11 05:36:46;;;;;;;19.33;15.63;;;14.60;99.90;;;;;;5015166;28;20044;-72
2022/09/11 05:39:12;;;;;;;19.80;16.25;;;14.50;99.90;;;;;;5018286;28;20526;-73
2022/09/11 05:41:37;;;;;;;15.32;13.43;;;14.50;99.90;;;;;;5034411;28;20390;-73
2022/09/11 05:44:03;;;;;;;16.25;13.90;;;14.60;99.90;;;;;;5034740;28;20064;-73
2022/09/11 05:46:29;;;;;;;15.25;13.65;;;14.60;99.90;;;;;;5034045;28;20034;-73
2022/09/11 05:48:54;;;;;;;18.60;14.98;;;14.60;99.90;;;;;;5034530;28;20026;-73
2022/09/11 05:51:20;;;;;;;15.45;13.35;;;14.60;99.90;;;;;;5034722;28;20036;-73
2022/09/11 05:53:51;;;;;;;15.55;13.90;;;14.70;99.90;;;;;;5017065;28;20033;-73
2022/09/11 05:56:19;;;;;;;16.45;12.55;;;14.70;99.90;;;;;;5024980;28;20029;-73
2022/09/11 05:58:46;;;;;;;15.10;11.95;;;14.50;99.90;;;;;;5017208;28;20045;-73
2022/09/11 06:01:17;;;;;;;17.45;13.55;;;14.60;99.90;;;;;;5014936;28;20353;-73
2022/09/11 06:03:43;;;;;;;17.73;12.43;;;14.40;99.90;;;;;;5027869;22;20509;-75
2022/09/11 06:06:10;;;;;;;14.07;12.50;;;14.40;99.90;;;;;;5014092;28;20037;-75
2022/09/11 06:08:37;;;;;;;16.38;12.93;;;14.40;99.90;;;;;;5014747;28;20500;-74
2022/09/11 06:11:08;;;;;;;19.83;13.90;;;14.30;99.90;;;;;;5013743;28;20104;-75
2022/09/11 06:13:37;;;;;;;20.02;15.15;;;14.40;99.90;;;;;;5007680;28;20053;-75
2022/09/11 06:16:03;;;;;;;17.70;14.45;;;14.40;99.90;;;;;;5007877;28;20498;-74
2022/09/11 06:18:29;;;;;;;17.42;14.30;;;14.40;99.90;;;;;;5003652;28;20027;-75
2022/09/11 06:20:59;;;;;;;15.15;13.38;;;14.10;99.90;;;;;;5002953;28;20134;-74
2022/09/11 06:23:25;;;;;;;19.50;14.20;;;14.40;99.90;;;;;;5001506;28;20033;-75
2022/09/11 06:25:53;;;;;;;17.83;14.55;;;14.30;99.90;;;;;;5013751;28;20025;-75
2022/09/11 06:28:22;;;;;;;20.38;15.32;;;14.40;99.90;;;;;;5011502;28;20026;-74
2022/09/11 06:30:49;;;;;;;16.42;13.77;;;14.40;99.90;;;;;;5009672;28;20037;-74
2022/09/11 06:33:15;;;;;;;18.73;13.85;;;14.50;99.90;;;;;;5013369;28;20479;-74
2022/09/11 06:35:40;;;;;;;14.07;12.50;;;14.60;99.90;;;;;;5001190;28;20037;-74
2022/09/11 06:38:06;;;;;;;14.43;12.73;;;14.50;99.90;;;;;;5012564;28;20458;-75
2022/09/11 06:40:31;;;;;;;14.35;12.85;;;14.50;99.90;;;;;;5003943;28;20026;-75
2022/09/11 06:42:57;;;;;;;16.42;13.30;;;14.50;99.90;;;;;;5001610;28;20030;-74
2022/09/11 06:45:23;;;;;;;13.30;11.93;;;14.50;99.90;;;;;;5000415;28;20037;-75
2022/09/11 06:47:49;;;;;;;15.57;12.73;;;14.70;99.90;;;;;;5025432;28;20029;-74
2022/09/11 06:50:14;;;;;;;15.40;12.07;;;14.90;99.90;;;;;;5000834;28;20030;-74
2022/09/11 06:52:41;;;;;;;12.45;11.15;;;14.90;99.90;;;;;;5007432;28;20388;-75
2022/09/11 06:55:12;;;;;;;12.13;10.65;;;14.80;99.90;;;;;;5007217;28;20447;-75
2022/09/11 06:57:40;;;;;;;13.60;12.18;;;14.90;99.90;;;;;;5001672;28;20084;-75
2022/09/11 07:00:06;;;;;;;15.13;11.32;;;15.00;99.90;;;;;;4999311;28;20026;-74
2022/09/11 07:02:32;;;;;;;13.68;11.38;;;15.00;99.90;;;;;;5006913;28;20488;-74
2022/09/11 07:04:57;;;;;;;11.02;9.82;;;15.10;99.90;;;;;;5007306;28;20172;-74
2022/09/11 07:07:23;;;;;;;11.52;9.48;;;15.00;99.90;;;;;;5001082;28;20060;-74
2022/09/11 07:09:48;;;;;;;11.93;10.18;;;15.00;99.90;;;;;;5000627;28;20484;-75
2022/09/11 07:12:14;;;;;;;12.00;10.80;;;15.00;99.90;;;;;;5006853;28;20034;-74
2022/09/11 07:14:40;;;;;;;11.18;9.90;;;14.80;99.90;;;;;;5006866;28;20026;-74
2022/09/11 07:17:06;;;;;;;10.32;9.00;;;14.80;99.90;;;;;;5008312;28;20080;-73
2022/09/11 07:19:32;;;;;;;10.45;9.35;;;14.90;99.90;;;;;;5011913;28;20439;-74
2022/09/11 07:21:58;;;;;;;11.32;8.80;;;15.00;99.90;;;;;;5000372;28;20029;-75
2022/09/11 07:24:23;;;;;;;9.60;8.60;;;15.10;99.90;;;;;;5013224;28;20022;-73
2022/09/11 07:26:49;;;;;;;10.55;8.95;;;15.10;99.90;;;;;;5012751;28;20030;-74
2022/09/11 07:29:14;;;;;;;11.57;10.30;;;14.80;99.90;;;;;;5011564;28;20129;-74
2022/09/11 07:31:41;;;;;;;9.77;8.45;;;15.00;99.90;;;;;;4999704;28;20029;-74
2022/09/11 07:34:07;;;;;;;10.20;8.50;;;15.10;99.90;;;;;;5000132;28;20101;-75
2022/09/11 07:36:34;;;;;;;11.25;9.18;;;15.00;99.90;;;;;;5006931;28;20547;-75
2022/09/11 07:39:00;;;;;;;9.93;8.40;;;15.10;99.90;;;;;;5006393;28;20026;-75
2022/09/11 07:41:27;;;;;;;9.23;8.23;;;15.30;99.90;;;;;;5005741;28;20025;-75
2022/09/11 07:43:54;;;;;;;9.02;8.15;;;15.20;99.90;;;;;;4999699;28;20400;-75
2022/09/11 07:46:20;;;;;;;10.20;8.15;;;15.50;99.90;;;;;;5005261;28;20027;-75
2022/09/11 07:48:46;;;;;;;9.27;8.35;;;15.30;99.90;;;;;;5005030;28;20036;-75
2022/09/11 07:51:14;;;;;;;8.73;7.82;;;15.30;99.90;;;;;;5001149;28;20026;-75
2022/09/11 07:53:48;;;;;;;11.10;8.35;;;15.40;99.90;;;;;;4998264;28;20037;-74
2022/09/11 07:56:19;;;;;;;10.15;8.45;;;15.50;99.90;;;;;;5002826;28;20023;-75
2022/09/11 07:58:46;;;;;;;10.73;7.82;;;15.50;99.90;;;;;;5006234;28;20026;-75
2022/09/11 08:01:15;;;;;;;8.68;7.88;;;15.30;99.90;;;;;;5003238;28;20044;-75
2022/09/11 08:03:44;;;;;;;7.40;6.43;;;15.40;99.90;;;;;;4999285;28;20033;-75
2022/09/11 08:06:15;;;;;;;9.13;7.75;;;15.30;99.90;;;;;;5011601;28;20022;-75
2022/09/11 08:08:41;;;;;;;8.18;7.38;;;15.70;99.90;;;;;;4999260;28;20421;-75
2022/09/11 08:11:12;;;;;;;9.77;7.05;;;15.60;99.90;;;;;;5005625;28;20112;-75
2022/09/11 08:13:38;;;;;;;7.97;7.13;;;15.50;99.90;;;;;;5008404;28;20027;-74
2022/09/11 08:16:05;;;;;;;11.77;7.50;;;15.60;99.90;;;;;;4998407;28;20393;-75
2022/09/11 08:18:31;;;;;;;8.48;7.35;;;15.80;99.90;;;;;;5004480;28;20392;-75
2022/09/11 08:21:02;;;;;;;8.07;6.35;;;15.70;99.90;;;;;;4991382;28;20023;-75
2022/09/11 08:23:30;;;;;;;7.72;6.90;;;15.80;99.90;;;;;;4992539;28;20030;-75
2022/09/11 08:26:01;;;;;;;8.73;7.13;;;15.80;99.90;;;;;;5005834;28;20056;-74
2022/09/11 08:28:27;;;;;;;11.05;7.68;;;15.80;99.90;;;;;;5000846;28;20026;-74
2022/09/11 08:30:57;;;;;;;9.23;7.90;;;15.70;99.90;;;;;;4999159;28;20042;-75
2022/09/11 08:33:23;;;;;;;8.27;7.47;;;15.70;99.90;;;;;;5002110;28;20033;-75
2022/09/11 08:35:48;;;;;;;7.97;7.18;;;15.90;99.90;;;;;;5005682;28;20026;-75
2022/09/11 08:38:14;;;;;;;11.27;8.02;;;16.00;99.90;;;;;;5001014;28;20040;-76
2022/09/11 08:40:39;;;;;;;10.75;8.27;;;16.10;99.90;;;;;;5023343;28;20022;-76
2022/09/11 08:43:13;;;;;;;9.73;8.68;;;16.40;99.90;;;;;;5003552;28;20104;-75
2022/09/11 08:45:39;;;;;;;8.80;7.90;;;16.20;99.90;;;;;;5004561;28;20022;-75
2022/09/11 08:48:06;;;;;;;9.40;8.45;;;16.30;99.90;;;;;;5000896;28;20041;-75
2022/09/11 08:50:38;;;;;;;10.35;9.25;;;16.30;99.90;;;;;;4998676;28;20033;-74
2022/09/11 08:53:07;;;;;;;12.05;9.32;;;16.50;99.90;;;;;;5003410;28;20026;-75
2022/09/11 08:55:38;;;;;;;9.18;8.30;;;16.80;99.90;;;;;;5005942;28;20037;-75
2022/09/11 08:58:18;;;;;;;9.60;8.63;;;16.80;99.90;;;;;;5000613;28;20026;-74
2022/09/11 09:00:53;;;;;;;11.10;9.95;;;17.00;99.90;;;;;;4998987;28;20022;-75
2022/09/11 09:03:36;;;;;;;10.32;9.32;;;17.10;99.90;;;;;;4997092;28;20034;-74
2022/09/11 09:06:24;;;;;;;12.35;9.80;;;17.10;99.90;;;;;;5001398;28;20034;-74
2022/09/11 09:08:59;;;;;;;12.73;9.52;;;16.80;99.90;;;;;;5005229;28;20028;-74
2022/09/11 09:11:52;;;;;;;11.73;10.07;;;16.70;99.90;;;;;;5014461;28;20621;-73
2022/09/11 09:14:41;;;;;;;13.20;10.82;;;16.70;99.90;;;;;;5014276;28;20494;-74
2022/09/11 09:17:31;;;;;;;11.38;10.07;;;16.80;99.90;;;;;;5003644;28;20037;-74
2022/09/11 09:20:09;;;;;;;11.48;10.27;;;16.80;99.90;;;;;;4997925;28;20106;-74
2022/09/11 09:22:50;;;;;;;14.43;10.27;;;16.80;99.90;;;;;;4993629;28;20112;-73
2022/09/11 09:25:24;;;;;;;12.85;11.40;;;16.80;99.90;;;;;;4995713;28;20034;-74
2022/09/11 09:27:57;;;;;;;11.68;10.43;;;16.60;99.90;;;;;;4995735;28;20023;-74
2022/09/11 09:30:26;;;;;;;12.90;11.27;;;16.80;99.90;;;;;;5004854;28;20030;-74
2022/09/11 09:33:03;;;;;;;12.88;11.52;;;16.60;99.90;;;;;;5002216;28;20022;-74
2022/09/11 09:35:39;;;;;;;11.75;10.65;;;17.10;99.90;;;;;;5015353;28;20030;-74
2022/09/11 09:38:27;;;;;;;;;;;16.90;99.90;;;;;;4994672;28;20030;-74
2022/09/11 09:41:30;;;;;;;10.52;9.52;;;17.10;99.90;;;;;;5011637;28;19927;-74
2022/09/11 09:44:21;;;;;;;9.80;8.90;;;17.30;99.90;;;;;;5006751;28;20091;-74
2022/09/11 09:46:50;;;;;;;10.07;9.07;;;17.40;99.90;;;;;;5010424;28;20037;-73
2022/09/11 09:49:24;;;;;;;11.02;9.70;;;17.60;99.90;;;;;;5010998;28;20015;-74
2022/09/11 09:51:50;;;;;;;9.63;8.63;;;17.40;99.90;;;;;;5009163;28;20021;-74
2022/09/11 09:54:19;;;;;;;9.38;8.32;;;17.70;99.90;;;;;;5010833;28;20018;-74
2022/09/11 09:56:52;;;;;;;9.23;8.32;;;17.50;99.90;;;;;;5013517;28;20483;-74
2022/09/11 09:59:30;;;;;;;9.15;8.25;;;17.60;99.90;;;;;;5013571;28;20479;-73
2022/09/11 10:01:57;;;;;;;9.80;8.80;;;17.30;99.90;;;;;;5013781;28;20094;-73
2022/09/11 10:04:29;;;;;;;10.65;9.02;;;17.20;99.90;;;;;;5013990;28;20092;-74
2022/09/11 10:07:10;;;;;;;9.27;8.38;;;17.30;99.90;;;;;;4997537;28;20103;-74
2022/09/11 10:09:47;;;;;;;13.00;9.43;;;17.10;99.90;;;;;;4995309;28;20033;-74
2022/09/11 10:12:23;;;;;;;9.43;8.43;;;17.00;99.90;;;;;;5001356;28;20069;-75
2022/09/11 10:15:00;;;;;;;10.60;9.35;;;17.30;99.90;;;;;;5010853;28;20037;-74
2022/09/11 10:17:28;;;;;;;10.02;8.40;;;17.80;99.90;;;;;;5005317;28;20050;-75
2022/09/11 10:19:56;;;;;;;10.25;9.02;;;18.10;99.90;;;;;;4999100;28;20076;-75
2022/09/11 10:22:22;;;;;;;9.77;8.75;;;18.00;99.90;;;;;;5002161;28;20109;-75
2022/09/11 10:25:05;;;;;;;8.15;7.32;;;18.20;99.90;;;;;;4998762;28;20101;-75
2022/09/11 10:27:47;;;;;;;7.70;6.93;;;18.40;99.90;;;;;;5000837;28;20115;-74
2022/09/11 10:30:26;;;;;;;7.50;6.40;;;19.00;99.90;;;;;;5003659;28;20502;-75
2022/09/11 10:32:52;;;;;;;7.18;5.70;;;19.40;99.90;;;;;;5001713;28;20515;-75
2022/09/11 10:35:26;;;;;;;7.30;6.00;;;18.60;99.90;;;;;;5013029;28;20108;-75
2022/09/11 10:38:19;;;;;;;6.63;6.03;;;17.70;99.90;;;;;;5007902;28;20026;-75
2022/09/11 10:41:19;;;;;;;7.15;5.68;;;17.50;99.90;;;;;;4994130;28;20037;-76
2022/09/11 10:43:51;;;;;;;6.65;6.00;;;17.70;99.90;;;;;;4998729;28;20495;-75
2022/09/11 10:46:16;;;;;;;6.88;6.15;;;17.60;99.90;;;;;;5006576;28;20380;-75
2022/09/11 10:48:42;;;;;;;6.82;6.13;;;17.70;99.90;;;;;;5009118;28;20021;-75
2022/09/11 10:51:11;;;;;;;7.13;6.43;;;17.50;99.90;;;;;;5008005;28;20028;-75
2022/09/11 10:53:57;;;;;;;6.47;5.95;;;17.20;99.90;;;;;;5007546;28;20030;-75
2022/09/11 10:56:23;;;;;;;7.10;6.40;;;17.20;99.90;;;;;;5004969;28;20068;-75
2022/09/11 10:58:53;;;;;;;8.20;6.35;;;17.30;99.90;;;;;;5013876;28;20030;-75
2022/09/11 11:01:18;;;;;;;7.90;6.50;;;17.20;99.90;;;;;;5002989;28;20026;-74
2022/09/11 11:03:45;;;;;;;6.43;5.80;;;17.40;99.90;;;;;;5006945;28;20035;-75
2022/09/11 11:06:45;;;;;;;5.97;5.47;;;18.30;99.90;;;;;;5005155;28;20087;-75
2022/09/11 11:09:21;;;;;;;7.97;6.15;;;18.90;99.90;;;;;;4992965;28;20488;-76
2022/09/11 11:11:56;;;;;;;;;;;19.10;99.90;;;;;;4994980;28;20031;-75
2022/09/11 11:14:52;;;;;;;6.57;5.97;;;19.20;99.90;;;;;;4994032;28;19905;-75
2022/09/11 11:17:35;;;;;;;6.65;6.05;;;18.70;99.90;;;;;;5003009;28;20072;-75
2022/09/11 11:20:32;;;;;;;8.40;5.75;;;18.30;99.90;;;;;;5007084;28;20022;-75
2022/09/11 11:23:23;;;;;;;5.72;5.20;;;18.30;99.90;;;;;;5010493;28;20025;-74
2022/09/11 11:26:18;;;;;;;5.93;5.43;;;18.30;99.90;;;;;;5004543;28;20072;-74
2022/09/11 11:29:28;;;;;;;5.70;5.20;;;18.90;99.90;;;;;;5009467;28;20472;-74
2022/09/11 11:32:08;;;;;;;5.40;4.70;;;19.60;99.90;;;;;;5010448;28;20037;-74
2022/09/11 11:34:39;;;;;;;5.72;4.70;;;19.50;99.90;;;;;;5012852;28;20361;-74
2022/09/11 11:37:05;;;;;;;4.18;3.65;;;19.30;99.90;;;;;;5012921;28;20157;-74
2022/09/11 11:39:48;;;;;;;3.83;3.50;;;19.20;99.90;;;;;;5012925;28;20080;-75
2022/09/11 11:42:26;;;;;;;4.53;4.13;;;19.50;99.90;;;;;;4998519;28;20511;-75
2022/09/11 11:45:01;;;;;;;4.32;3.92;;;19.50;99.90;;;;;;5004040;28;20819;-75
2022/09/11 11:47:33;;;;;;;4.38;3.97;;;19.40;99.90;;;;;;4996732;28;20387;-75
2022/09/11 11:50:27;;;;;;;4.57;4.18;;;19.20;99.90;;;;;;5002055;28;20052;-75
2022/09/11 11:53:19;;;;;;;6.35;4.45;;;19.20;99.90;;;;;;5001139;28;20025;-77
2022/09/11 11:55:50;;;;;;;5.63;4.60;;;18.90;99.90;;;;;;5012692;28;20195;-74
2022/09/11 11:58:30;;;;;;;4.90;4.50;;;18.70;99.90;;;;;;5011344;28;20487;-75
2022/09/11 12:01:00;;;;;;;4.80;4.32;;;18.60;99.90;;;;;;4991793;28;20042;-75
2022/09/11 12:03:37;;;;;;;5.07;4.00;;;18.90;99.90;;;;;;5008200;22;20019;-71
2022/09/11 12:06:06;;;;;;;3.80;3.50;;;19.00;99.90;;;;;;4991784;28;20034;-74
2022/09/11 12:08:31;;;;;;;4.00;3.60;;;19.10;99.90;;;;;;4992533;28;20484;-74
2022/09/11 12:11:02;;;;;;;4.35;3.95;;;19.30;99.90;;;;;;4992870;28;20042;-74
2022/09/11 12:13:32;;;;;;;4.30;3.90;;;19.40;99.90;;;;;;4992517;28;20483;-73
2022/09/11 12:16:01;;;;;;;4.18;3.78;;;19.60;99.90;;;;;;4992739;28;20069;-73
2022/09/11 12:18:27;;;;;;;4.82;4.15;;;19.60;99.90;;;;;;4991173;28;20022;-73
2022/09/11 12:21:22;;;;;;;5.43;4.20;;;19.90;99.90;;;;;;4991468;28;20048;-73
2022/09/11 12:23:47;;;;;;;4.30;3.90;;;19.60;99.90;;;;;;4973015;28;20031;-73
2022/09/11 12:26:21;;;;;;;5.15;4.40;;;19.70;99.90;;;;;;4973748;28;20118;-73
2022/09/11 12:28:46;;;;;;;4.45;4.05;;;19.40;99.90;;;;;;4992344;28;20053;-73
2022/09/11 12:31:15;;;;;;;4.40;4.05;;;19.40;99.90;;;;;;4992485;28;20065;-73
2022/09/11 12:33:40;;;;;;;4.80;4.30;;;19.40;99.90;;;;;;4992353;28;20484;-73
2022/09/11 12:36:12;;;;;;;5.45;4.90;;;19.20;99.90;;;;;;4992343;28;20077;-73
2022/09/11 12:38:43;;;;;;;5.38;4.82;;;19.10;99.90;;;;;;4992220;28;20022;-73
2022/09/11 12:41:24;;;;;;;4.50;4.10;;;19.10;99.90;;;;;;5005590;28;20046;-73
2022/09/11 12:43:49;;;;;;;5.07;4.22;;;19.30;99.90;;;;;;4991971;28;20026;-73
2022/09/11 12:46:21;;;;;;;6.65;5.15;;;19.30;99.90;;;;;;4992255;28;20026;-72
2022/09/11 12:48:51;;;;;;;4.43;4.03;;;19.30;99.90;;;;;;4991928;28;20042;-72
2022/09/11 12:51:31;;;;;;;6.40;4.57;;;19.20;99.90;;;;;;4992354;28;20029;-72
2022/09/11 12:54:29;;;;;;;4.43;4.07;;;19.20;99.90;;;;;;4992141;28;20034;-72
2022/09/11 12:57:01;;;;;;;4.32;4.00;;;19.10;99.90;;;;;;4991994;28;20452;-73
2022/09/11 12:59:36;;;;;;;5.60;5.15;;;19.00;99.90;;;;;;4992080;28;20122;-71